createdAt,value
2023-03-07T00:01:30.962Z,87.44
2023-03-07T00:03:37.052Z,87.03
2023-03-07T00:05:43.220Z,86.91
2023-03-07T00:07:47.099Z,86.94
2023-03-07T00:09:50.604Z,87.20
2023-03-07T00:11:54.884Z,87.23
2023-03-07T00:13:58.591Z,87.23
2023-03-07T00:16:03.575Z,86.98
2023-03-07T00:18:07.538Z,87.05
2023-03-07T00:20:14.655Z,87.11
2023-03-07T00:22:19.419Z,86.57
2023-03-07T00:24:23.171Z,86.32
2023-03-07T00:26:28.028Z,86.53
2023-03-07T00:28:32.328Z,87.02
2023-03-07T00:30:35.842Z,86.80
2023-03-07T00:32:39.365Z,86.94
2023-03-07T00:34:43.206Z,86.48
2023-03-07T00:36:47.100Z,86.77
2023-03-07T00:38:52.506Z,86.60
2023-03-07T00:41:00.512Z,86.52
2023-03-07T00:43:04.616Z,86.56
2023-03-07T00:45:09.262Z,86.55
2023-03-07T00:47:12.698Z,86.56
2023-03-07T00:49:17.303Z,86.49
2023-03-07T00:51:23.920Z,86.34
2023-03-07T00:53:27.592Z,86.41
2023-03-07T00:55:35.021Z,86.11
2023-03-07T00:57:38.844Z,85.78
2023-03-07T00:59:43.395Z,85.91
2023-03-07T01:01:49.087Z,86.37
2023-03-07T01:03:54.433Z,86.53
2023-03-07T01:05:58.284Z,86.43
2023-03-07T01:08:02.153Z,86.25
2023-03-07T01:10:07.324Z,86.27
2023-03-07T01:12:12.129Z,86.60
2023-03-07T01:14:15.813Z,86.40
2023-03-07T01:16:26.147Z,86.26
2023-03-07T01:18:30.065Z,86.41
2023-03-07T01:20:34.767Z,86.24
2023-03-07T01:22:38.621Z,86.41
2023-03-07T01:24:43.061Z,86.42
2023-03-07T01:26:47.473Z,86.74
2023-03-07T01:28:53.902Z,86.89
2023-03-07T01:31:01.079Z,86.77
2023-03-07T01:33:05.555Z,86.74
2023-03-07T01:35:09.987Z,86.85
2023-03-07T01:37:14.050Z,87.13
2023-03-07T01:39:19.033Z,86.81
2023-03-07T01:41:37.244Z,86.88
2023-03-07T01:43:42.108Z,86.82
2023-03-07T01:46:41.309Z,86.64
2023-03-07T01:48:47.308Z,86.78
2023-03-07T01:50:51.046Z,86.85
2023-03-07T01:52:58.407Z,86.74
2023-03-07T01:55:06.625Z,86.50
2023-03-07T01:57:11.702Z,86.44
2023-03-07T01:59:20.248Z,86.09
2023-03-07T02:01:25.490Z,86.24
2023-03-07T02:03:36.881Z,86.15
2023-03-07T02:05:46.597Z,86.09
2023-03-07T02:07:52.174Z,86.40
2023-03-07T02:10:02.844Z,85.90
2023-03-07T02:12:09.604Z,86.13
2023-03-07T02:14:14.054Z,86.48
2023-03-07T02:16:17.951Z,85.86
2023-03-07T02:18:31.509Z,85.66
2023-03-07T02:20:47.795Z,85.48
2023-03-07T02:22:51.651Z,85.20
2023-03-07T02:25:02.420Z,85.31
2023-03-07T02:27:08.846Z,85.14
2023-03-07T02:29:16.198Z,85.15
2023-03-07T02:31:23.336Z,85.33
2023-03-07T02:33:27.563Z,85.05
2023-03-07T02:35:36.680Z,85.05
2023-03-07T02:37:42.707Z,84.72
2023-03-07T02:39:49.465Z,84.47
2023-03-07T02:41:56.829Z,84.30
2023-03-07T02:44:10.737Z,83.93
2023-03-07T02:46:18.034Z,84.17
2023-03-07T02:48:24.410Z,84.13
2023-03-07T02:50:29.308Z,83.90
2023-03-07T02:52:33.941Z,84.00
2023-03-07T02:54:38.248Z,83.88
2023-03-07T02:56:41.921Z,84.10
2023-03-07T02:58:45.659Z,83.78
2023-03-07T03:00:52.437Z,83.77
2023-03-07T03:02:56.135Z,83.89
2023-03-07T03:04:59.765Z,83.91
2023-03-07T03:07:03.284Z,84.03
2023-03-07T03:09:07.120Z,84.04
2023-03-07T03:11:11.450Z,84.42
2023-03-07T03:13:15.144Z,84.48
2023-03-07T03:15:19.568Z,84.14
2023-03-07T03:17:25.090Z,84.26
2023-03-07T03:19:31.387Z,83.85
2023-03-07T03:21:36.055Z,84.25
2023-03-07T03:23:45.616Z,83.91
2023-03-07T03:26:00.114Z,83.87
2023-03-07T03:28:06.762Z,84.13
2023-03-07T03:30:14.397Z,83.85
2023-03-07T03:32:22.564Z,83.92
2023-03-07T03:34:29.156Z,83.89
2023-03-07T03:36:32.960Z,84.24
2023-03-07T03:38:40.692Z,84.25
2023-03-07T03:40:45.631Z,84.38
2023-03-07T03:42:50.947Z,84.38
2023-03-07T03:44:55.579Z,84.33
2023-03-07T03:46:59.017Z,84.02
2023-03-07T03:49:04.011Z,84.04
2023-03-07T03:51:12.058Z,83.90
2023-03-07T03:53:18.817Z,84.47
2023-03-07T03:55:23.105Z,84.07
2023-03-07T03:57:28.017Z,84.40
2023-03-07T03:59:31.551Z,84.56
2023-03-07T04:01:36.583Z,84.68
2023-03-07T04:03:42.637Z,83.86
2023-03-07T04:05:46.333Z,84.11
2023-03-07T04:07:52.392Z,83.87
2023-03-07T04:09:57.176Z,84.63
2023-03-07T04:12:01.641Z,84.73
2023-03-07T04:14:06.220Z,84.68
2023-03-07T04:16:10.721Z,84.49
2023-03-07T04:18:14.101Z,84.71
2023-03-07T04:20:19.897Z,84.96
2023-03-07T04:22:25.034Z,85.14
2023-03-07T04:24:31.303Z,84.90
2023-03-07T04:26:35.799Z,85.12
2023-03-07T04:28:49.572Z,85.51
2023-03-07T04:30:58.483Z,85.71
2023-03-07T04:33:01.970Z,85.38
2023-03-07T04:35:08.635Z,85.51
2023-03-07T04:37:12.279Z,85.65
2023-03-07T04:39:16.463Z,86.02
2023-03-07T04:41:27.271Z,86.02
2023-03-07T04:43:35.105Z,85.96
2023-03-07T04:45:38.642Z,86.22
2023-03-07T04:47:42.252Z,86.41
2023-03-07T04:49:46.392Z,86.15
2023-03-07T04:51:49.822Z,86.40
2023-03-07T04:53:53.359Z,86.46
2023-03-07T04:55:59.877Z,86.14
2023-03-07T04:58:04.584Z,86.17
2023-03-07T05:00:10.347Z,86.44
2023-03-07T05:02:14.913Z,86.96
2023-03-07T05:04:19.053Z,86.37
2023-03-07T05:06:22.974Z,86.74
2023-03-07T05:08:27.600Z,86.94
2023-03-07T05:10:31.893Z,87.56
2023-03-07T05:12:35.868Z,87.37
2023-03-07T05:14:43.881Z,87.43
2023-03-07T05:16:48.587Z,87.10
2023-03-07T05:18:52.017Z,87.50
2023-03-07T05:20:56.476Z,87.78
2023-03-07T05:23:00.781Z,88.07
2023-03-07T05:25:06.627Z,87.78
2023-03-07T05:27:10.255Z,88.33
2023-03-07T05:29:14.781Z,88.51
2023-03-07T05:31:19.741Z,88.29
2023-03-07T05:33:23.208Z,88.18
2023-03-07T05:35:28.481Z,87.86
2023-03-07T05:37:35.097Z,88.27
2023-03-07T05:39:38.971Z,88.53
2023-03-07T05:41:43.748Z,87.94
2023-03-07T05:43:48.968Z,87.60
2023-03-07T05:45:52.618Z,87.95
2023-03-07T05:47:59.950Z,87.70
2023-03-07T05:50:03.651Z,87.81
2023-03-07T05:52:11.628Z,87.87
2023-03-07T05:54:15.653Z,88.61
2023-03-07T05:56:19.081Z,88.61
2023-03-07T05:58:23.454Z,89.13
2023-03-07T06:00:27.261Z,88.69
2023-03-07T06:02:36.658Z,88.73
2023-03-07T06:04:42.779Z,89.05
2023-03-07T06:06:46.189Z,88.74
2023-03-07T06:08:49.676Z,89.04
2023-03-07T06:10:55.670Z,89.32
2023-03-07T06:13:00.099Z,88.98
2023-03-07T06:15:06.722Z,89.96
2023-03-07T06:17:11.564Z,89.81
2023-03-07T06:19:21.534Z,90.21
2023-03-07T06:21:28.333Z,89.94
2023-03-07T06:23:36.362Z,90.27
2023-03-07T06:25:43.458Z,90.00
2023-03-07T06:27:47.184Z,89.33
2023-03-07T06:29:50.772Z,90.30
2023-03-07T06:31:54.456Z,89.59
2023-03-07T06:33:58.484Z,89.66
2023-03-07T06:36:08.075Z,90.13
2023-03-07T06:38:16.801Z,89.44
2023-03-07T06:40:21.958Z,90.20
2023-03-07T06:42:26.064Z,90.29
2023-03-07T06:44:30.608Z,89.64
2023-03-07T06:46:34.334Z,90.04
2023-03-07T06:48:44.003Z,90.54
2023-03-07T06:50:52.173Z,90.25
2023-03-07T06:52:55.899Z,90.10
2023-03-07T06:55:01.964Z,90.68
2023-03-07T06:57:07.292Z,90.60
2023-03-07T06:59:11.525Z,90.46
2023-03-07T07:01:20.811Z,90.36
2023-03-07T07:03:28.048Z,90.42
2023-03-07T07:05:32.079Z,89.87
2023-03-07T07:07:36.359Z,89.64
2023-03-07T07:09:42.896Z,89.92
2023-03-07T07:11:48.751Z,89.58
2023-03-07T07:13:57.297Z,90.25
2023-03-07T07:16:07.824Z,89.60
2023-03-07T07:18:15.743Z,89.81
2023-03-07T07:20:20.407Z,89.98
2023-03-07T07:22:25.404Z,89.24
2023-03-07T07:24:32.845Z,89.55
2023-03-07T07:26:41.037Z,89.44
2023-03-07T07:28:47.885Z,89.61
2023-03-07T07:30:52.402Z,89.31
2023-03-07T07:32:57.049Z,89.27
2023-03-07T07:35:07.145Z,89.45
2023-03-07T07:37:14.462Z,89.06
2023-03-07T07:39:20.334Z,89.23
2023-03-07T07:41:24.994Z,89.02
2023-03-07T07:43:33.464Z,89.15
2023-03-07T07:45:50.242Z,89.04
2023-03-07T07:47:58.528Z,89.05
2023-03-07T07:50:02.997Z,88.88
2023-03-07T07:52:12.485Z,88.79
2023-03-07T07:54:19.066Z,87.92
2023-03-07T07:56:26.031Z,88.11
2023-03-07T07:58:30.399Z,87.98
2023-03-07T08:00:34.508Z,87.87
2023-03-07T08:02:41.071Z,87.49
2023-03-07T08:04:46.214Z,88.09
2023-03-07T08:06:50.040Z,88.02
2023-03-07T08:08:54.582Z,87.31
2023-03-07T08:10:58.399Z,87.29
2023-03-07T08:13:02.246Z,87.06
2023-03-07T08:15:09.882Z,87.00
2023-03-07T08:17:14.752Z,86.25
2023-03-07T08:19:19.756Z,87.07
2023-03-07T08:21:24.125Z,86.72
2023-03-07T08:23:30.327Z,86.45
2023-03-07T08:25:37.539Z,86.90
2023-03-07T08:27:43.035Z,87.07
2023-03-07T08:29:51.639Z,87.03
2023-03-07T08:31:57.145Z,86.86
2023-03-07T08:34:01.909Z,86.68
2023-03-07T08:36:10.830Z,86.85
2023-03-07T08:38:15.635Z,86.42
2023-03-07T08:40:19.766Z,86.80
2023-03-07T08:42:23.431Z,87.02
2023-03-07T08:44:27.413Z,86.86
2023-03-07T08:46:31.144Z,86.99
2023-03-07T08:48:35.013Z,87.54
2023-03-07T08:50:41.111Z,87.60
2023-03-07T08:52:47.130Z,88.12
2023-03-07T08:54:52.056Z,88.86
2023-03-07T08:56:56.363Z,89.17
2023-03-07T08:59:00.350Z,89.17
2023-03-07T09:01:08.284Z,88.69
2023-03-07T09:03:13.022Z,88.62
2023-03-07T09:05:16.817Z,87.99
2023-03-07T09:07:21.924Z,87.87
2023-03-07T09:09:27.098Z,87.38
2023-03-07T09:11:31.707Z,86.24
2023-03-07T09:13:49.801Z,85.88
2023-03-07T09:15:55.516Z,85.02
2023-03-07T09:17:59.188Z,84.37
2023-03-07T09:20:02.808Z,82.69
2023-03-07T09:22:06.787Z,81.68
2023-03-07T09:24:10.607Z,80.33
2023-03-07T09:26:17.250Z,80.35
2023-03-07T09:28:21.063Z,79.52
2023-03-07T09:30:28.364Z,77.96
2023-03-07T09:32:33.985Z,77.94
2023-03-07T09:34:37.532Z,77.33
2023-03-07T09:36:41.585Z,76.56
2023-03-07T09:38:47.256Z,76.69
2023-03-07T09:40:50.877Z,76.51
2023-03-07T09:43:10.195Z,75.73
2023-03-07T09:45:22.993Z,74.87
2023-03-07T09:47:55.333Z,73.65
2023-03-07T09:50:03.123Z,74.31
2023-03-07T09:52:15.427Z,74.20
2023-03-07T09:54:21.591Z,73.92
2023-03-07T09:56:28.737Z,73.87
2023-03-07T09:58:36.865Z,72.42
2023-03-07T10:00:47.663Z,71.79
2023-03-07T10:02:56.429Z,71.04
2023-03-07T10:05:06.249Z,70.95
2023-03-07T10:07:14.295Z,71.41
2023-03-07T10:09:22.141Z,71.52
2023-03-07T10:11:39.206Z,71.66
2023-03-07T10:14:05.268Z,71.39
2023-03-07T10:16:22.181Z,70.99
2023-03-07T10:18:50.869Z,70.12
2023-03-07T10:21:00.097Z,70.08
2023-03-07T10:23:19.392Z,70.14
2023-03-07T10:25:31.184Z,68.98
2023-03-07T10:27:35.324Z,69.48
2023-03-07T10:29:47.572Z,69.98
2023-03-07T10:31:56.885Z,69.31
2023-03-07T10:34:00.755Z,69.22
2023-03-07T10:36:10.552Z,69.43
2023-03-07T10:38:21.477Z,68.61
2023-03-07T10:40:33.407Z,68.40
2023-03-07T10:42:39.972Z,67.74
2023-03-07T10:44:48.298Z,67.98
2023-03-07T10:46:56.690Z,68.17
2023-03-07T10:49:11.002Z,69.49
2023-03-07T10:51:31.470Z,68.69
2023-03-07T10:53:39.228Z,68.48
2023-03-07T10:55:44.877Z,67.17
2023-03-07T10:57:48.644Z,66.58
2023-03-07T10:59:53.684Z,66.42
2023-03-07T11:02:03.722Z,66.99
2023-03-07T11:04:10.259Z,67.61
2023-03-07T11:06:32.861Z,66.26
2023-03-07T11:08:38.056Z,65.68
2023-03-07T11:10:42.017Z,66.29
2023-03-07T11:12:47.816Z,66.96
2023-03-07T11:14:56.118Z,66.19
2023-03-07T11:17:01.627Z,65.38
2023-03-07T11:19:05.692Z,66.82
2023-03-07T11:21:30.250Z,66.67
2023-03-07T11:23:34.186Z,65.14
2023-03-07T11:25:39.378Z,66.67
2023-03-07T11:27:54.980Z,65.93
2023-03-07T11:30:25.311Z,65.71
2023-03-07T11:32:29.129Z,65.32
2023-03-07T11:34:38.904Z,63.82
2023-03-07T11:36:48.785Z,64.42
2023-03-07T11:39:01.126Z,63.45
2023-03-07T11:41:09.523Z,62.81
2023-03-07T11:43:22.689Z,62.07
2023-03-07T11:45:38.452Z,63.03
2023-03-07T11:47:55.427Z,63.62
2023-03-07T11:50:22.992Z,63.71
2023-03-07T11:52:48.193Z,63.09
2023-03-07T11:55:03.750Z,63.05
2023-03-07T11:57:21.589Z,63.44
2023-03-07T11:59:48.901Z,63.63
2023-03-07T12:01:59.427Z,63.50
2023-03-07T12:04:44.899Z,62.84
2023-03-07T12:07:00.168Z,62.24
2023-03-07T12:09:13.790Z,61.67
2023-03-07T12:11:42.868Z,61.37
2023-03-07T12:13:58.672Z,61.22
2023-03-07T12:16:11.896Z,60.78
2023-03-07T12:18:40.438Z,59.97
2023-03-07T12:20:54.804Z,60.14
2023-03-07T12:23:08.961Z,59.56
2023-03-07T12:25:25.570Z,58.17
2023-03-07T12:27:33.963Z,58.49
2023-03-07T12:29:41.887Z,58.82
2023-03-07T12:31:48.757Z,58.42
2023-03-07T12:33:58.451Z,58.17
2023-03-07T12:36:06.866Z,58.50
2023-03-07T12:38:15.837Z,58.47
2023-03-07T12:40:22.647Z,59.12
2023-03-07T12:42:36.733Z,58.90
2023-03-07T12:44:44.548Z,58.36
2023-03-07T12:46:55.644Z,59.08
2023-03-07T12:49:07.649Z,58.68
2023-03-07T12:51:19.196Z,58.61
2023-03-07T12:53:31.768Z,59.32
2023-03-07T12:55:41.012Z,59.06
2023-03-07T12:57:51.484Z,58.93
2023-03-07T13:00:00.162Z,57.93
2023-03-07T13:02:08.028Z,56.92
2023-03-07T13:04:19.005Z,56.19
2023-03-07T13:06:25.119Z,56.46
2023-03-07T13:08:29.239Z,55.61
2023-03-07T13:10:33.512Z,56.55
2023-03-07T13:12:37.645Z,56.58
2023-03-07T13:14:42.898Z,55.70
2023-03-07T13:16:47.865Z,56.06
2023-03-07T13:18:51.519Z,56.43
2023-03-07T13:21:31.952Z,55.85
2023-03-07T13:23:35.922Z,55.98
2023-03-07T13:26:04.785Z,56.31
2023-03-07T13:28:39.567Z,55.07
2023-03-07T13:31:31.250Z,55.33
2023-03-07T13:33:34.994Z,55.97
2023-03-07T13:35:56.214Z,56.59
2023-03-07T13:38:04.071Z,55.83
2023-03-07T13:40:25.208Z,55.53
2023-03-07T13:42:48.472Z,54.97
2023-03-07T13:44:52.096Z,55.08
2023-03-07T13:47:01.471Z,54.41
2023-03-07T13:49:05.127Z,54.49
2023-03-07T13:51:10.638Z,54.46
2023-03-07T13:53:20.389Z,53.83
2023-03-07T13:55:30.265Z,54.21
2023-03-07T13:57:41.932Z,54.43
2023-03-07T13:59:50.123Z,54.22
2023-03-07T14:01:58.829Z,54.43
2023-03-07T14:04:09.828Z,53.86
2023-03-07T14:06:19.482Z,53.76
2023-03-07T14:08:29.836Z,54.30
2023-03-07T14:10:33.582Z,54.01
2023-03-07T14:12:52.076Z,54.14
2023-03-07T14:15:12.676Z,53.60
2023-03-07T14:17:40.180Z,53.67
2023-03-07T14:20:00.761Z,54.28
2023-03-07T14:22:12.683Z,52.96
2023-03-07T14:24:41.373Z,53.31
2023-03-07T14:26:47.715Z,53.38
2023-03-07T14:28:53.627Z,54.01
2023-03-07T14:31:01.110Z,54.85
2023-03-07T14:33:05.428Z,55.20
2023-03-07T14:35:15.412Z,55.01
2023-03-07T14:37:24.099Z,55.38
2023-03-07T14:39:43.265Z,55.73
2023-03-07T14:41:57.038Z,55.82
2023-03-07T14:44:16.451Z,56.05
2023-03-07T14:46:31.454Z,55.58
2023-03-07T14:49:08.235Z,54.90
2023-03-07T14:51:17.826Z,54.68
2023-03-07T14:53:26.742Z,53.99
2023-03-07T14:55:37.795Z,54.75
2023-03-07T14:57:46.648Z,55.70
2023-03-07T15:00:13.714Z,56.63
2023-03-07T15:02:19.473Z,56.82
2023-03-07T15:04:26.235Z,57.60
2023-03-07T15:06:31.751Z,58.26
2023-03-07T15:08:38.655Z,58.27
2023-03-07T15:10:48.563Z,58.36
2023-03-07T15:12:54.786Z,59.44
2023-03-07T15:15:02.918Z,58.84
2023-03-07T15:17:13.311Z,59.13
2023-03-07T15:19:22.284Z,59.10
2023-03-07T15:21:30.245Z,59.68
2023-03-07T15:23:34.804Z,59.66
2023-03-07T15:25:40.302Z,59.79
2023-03-07T15:27:45.570Z,59.54
2023-03-07T15:29:49.856Z,58.94
2023-03-07T15:31:56.154Z,59.13
2023-03-07T15:34:12.602Z,59.39
2023-03-07T15:36:27.656Z,59.44
2023-03-07T15:38:31.159Z,59.44
2023-03-07T15:40:35.916Z,59.97
2023-03-07T15:42:52.183Z,60.19
2023-03-07T15:44:57.545Z,60.06
2023-03-07T15:47:06.051Z,59.97
2023-03-07T15:49:23.303Z,59.90
2023-03-07T15:51:35.417Z,59.79
2023-03-07T15:53:41.878Z,59.50
2023-03-07T15:55:55.476Z,58.99
2023-03-07T15:58:03.993Z,59.24
2023-03-07T16:00:17.472Z,58.75
2023-03-07T16:02:37.822Z,59.20
2023-03-07T16:04:42.979Z,59.10
2023-03-07T16:06:47.090Z,58.80
2023-03-07T16:08:50.860Z,58.29
2023-03-07T16:11:00.616Z,58.64
2023-03-07T16:13:05.647Z,58.32
2023-03-07T16:15:14.969Z,58.32
2023-03-07T16:17:21.771Z,58.22
2023-03-07T16:19:25.540Z,58.41
2023-03-07T16:21:29.905Z,59.03
2023-03-07T16:23:34.638Z,58.67
2023-03-07T16:25:39.071Z,58.25
2023-03-07T16:27:46.216Z,57.68
2023-03-07T16:29:51.990Z,57.41
2023-03-07T16:31:55.735Z,57.31
2023-03-07T16:34:00.953Z,57.32
2023-03-07T16:36:04.724Z,57.38
2023-03-07T16:38:08.622Z,57.30
2023-03-07T16:40:13.589Z,56.81
2023-03-07T16:42:21.903Z,56.21
2023-03-07T16:44:25.773Z,56.62
2023-03-07T16:46:31.643Z,56.37
2023-03-07T16:48:35.929Z,56.56
2023-03-07T16:50:40.217Z,56.38
2023-03-07T16:52:44.424Z,56.28
2023-03-07T16:54:48.576Z,56.10
2023-03-07T16:56:55.766Z,56.84
2023-03-07T16:59:01.897Z,57.21
2023-03-07T17:01:06.398Z,57.81
2023-03-07T17:03:12.497Z,58.15
2023-03-07T17:05:18.877Z,58.71
2023-03-07T17:07:24.344Z,58.89
2023-03-07T17:09:28.194Z,59.20
2023-03-07T17:11:32.573Z,59.19
2023-03-07T17:13:36.257Z,59.24
2023-03-07T17:15:40.481Z,59.14
2023-03-07T17:17:45.489Z,59.67
2023-03-07T17:19:51.257Z,59.47
2023-03-07T17:21:55.263Z,59.84
2023-03-07T17:23:59.272Z,60.00
2023-03-07T17:26:03.282Z,59.65
2023-03-07T17:28:09.996Z,59.98
2023-03-07T17:30:20.952Z,59.75
2023-03-07T17:32:24.731Z,59.79
2023-03-07T17:34:31.105Z,60.04
2023-03-07T17:36:36.596Z,59.96
2023-03-07T17:38:41.014Z,59.56
2023-03-07T17:40:45.530Z,59.54
2023-03-07T17:42:51.912Z,59.69
2023-03-07T17:44:56.099Z,59.51
2023-03-07T17:47:00.709Z,59.54
2023-03-07T17:49:04.836Z,59.48
2023-03-07T17:51:11.080Z,59.29
2023-03-07T17:53:16.954Z,59.71
2023-03-07T17:55:21.238Z,60.24
2023-03-07T17:57:25.224Z,60.31
2023-03-07T17:59:28.993Z,60.15
2023-03-07T18:01:33.887Z,60.30
2023-03-07T18:03:38.241Z,60.48
2023-03-07T18:05:42.794Z,60.77
2023-03-07T18:07:47.106Z,60.90
2023-03-07T18:10:06.915Z,60.93
2023-03-07T18:12:11.719Z,61.09
2023-03-07T18:14:15.446Z,61.20
2023-03-07T18:16:21.227Z,61.67
2023-03-07T18:18:25.802Z,61.93
2023-03-07T18:20:31.032Z,62.15
2023-03-07T18:22:37.855Z,62.29
2023-03-07T18:24:43.492Z,62.56
2023-03-07T18:26:58.224Z,62.38
2023-03-07T18:29:01.984Z,62.61
2023-03-07T18:31:09.562Z,62.92
2023-03-07T18:33:32.135Z,63.11
2023-03-07T18:35:38.610Z,63.01
2023-03-07T18:37:45.607Z,62.73
2023-03-07T18:39:50.571Z,63.31
2023-03-07T18:41:56.884Z,63.62
2023-03-07T18:44:02.708Z,63.60
2023-03-07T18:46:07.055Z,63.91
2023-03-07T18:48:14.422Z,64.48
2023-03-07T18:50:19.027Z,64.59
2023-03-07T18:52:24.507Z,64.63
2023-03-07T18:54:30.472Z,64.64
2023-03-07T18:56:36.839Z,65.11
2023-03-07T18:58:43.493Z,65.20
2023-03-07T19:00:48.321Z,65.57
2023-03-07T19:02:52.121Z,65.49
2023-03-07T19:04:55.880Z,65.40
2023-03-07T19:07:01.635Z,65.48
2023-03-07T19:09:06.515Z,66.00
2023-03-07T19:11:13.230Z,66.48
2023-03-07T19:13:19.892Z,66.66
2023-03-07T19:15:25.411Z,67.04
2023-03-07T19:17:30.677Z,67.05
2023-03-07T19:19:37.829Z,67.17
2023-03-07T19:21:42.881Z,67.23
2023-03-07T19:23:48.059Z,67.23
2023-03-07T19:25:51.620Z,67.57
2023-03-07T19:27:55.292Z,67.81
2023-03-07T19:29:58.766Z,68.00
2023-03-07T19:32:04.157Z,67.86
2023-03-07T19:34:07.983Z,67.71
2023-03-07T19:36:13.236Z,68.48
2023-03-07T19:38:17.257Z,68.62
2023-03-07T19:40:23.603Z,68.65
2023-03-07T19:42:27.173Z,68.51
2023-03-07T19:44:30.835Z,68.95
2023-03-07T19:46:34.840Z,69.34
2023-03-07T19:48:43.590Z,69.74
2023-03-07T19:50:48.911Z,69.15
2023-03-07T19:52:53.951Z,69.29
2023-03-07T19:54:57.778Z,69.18
2023-03-07T19:57:02.630Z,69.41
2023-03-07T19:59:07.188Z,70.09
2023-03-07T20:01:12.507Z,70.54
2023-03-07T20:03:17.590Z,70.58
2023-03-07T20:05:24.407Z,70.92
2023-03-07T20:07:28.627Z,71.68
2023-03-07T20:09:32.398Z,71.43
2023-03-07T20:11:38.916Z,71.84
2023-03-07T20:13:46.932Z,72.01
2023-03-07T20:15:53.196Z,72.96
2023-03-07T20:17:57.203Z,72.83
2023-03-07T20:20:02.374Z,73.21
2023-03-07T20:22:09.352Z,73.07
2023-03-07T20:24:14.141Z,73.62
2023-03-07T20:26:20.272Z,74.94
2023-03-07T20:28:25.293Z,74.43
2023-03-07T20:30:30.061Z,74.49
2023-03-07T20:32:36.573Z,74.38
2023-03-07T20:34:41.501Z,74.40
2023-03-07T20:36:47.459Z,74.36
2023-03-07T20:38:56.068Z,74.25
2023-03-07T20:41:04.946Z,74.28
2023-03-07T20:43:11.131Z,75.63
2023-03-07T20:45:17.114Z,74.99
2023-03-07T20:47:24.472Z,75.96
2023-03-07T20:49:30.850Z,75.52
2023-03-07T20:51:37.083Z,75.91
2023-03-07T20:53:42.409Z,75.42
2023-03-07T20:55:48.314Z,76.83
2023-03-07T20:57:52.575Z,76.21
2023-03-07T20:59:58.019Z,75.82
2023-03-07T21:02:02.051Z,76.92
2023-03-07T21:04:08.509Z,76.13
2023-03-07T21:06:14.028Z,77.28
2023-03-07T21:08:19.597Z,77.06
2023-03-07T21:10:25.089Z,76.71
2023-03-07T21:12:32.253Z,77.44
2023-03-07T21:14:37.904Z,77.26
2023-03-07T21:16:43.290Z,77.18
2023-03-07T21:18:47.467Z,77.35
2023-03-07T21:20:53.012Z,77.32
2023-03-07T21:22:58.110Z,77.62
2023-03-07T21:25:01.723Z,78.08
2023-03-07T21:27:06.475Z,78.28
2023-03-07T21:29:13.895Z,77.62
2023-03-07T21:31:20.242Z,78.33
2023-03-07T21:33:24.256Z,79.40
2023-03-07T21:35:32.364Z,78.71
2023-03-07T21:37:38.002Z,79.27
2023-03-07T21:39:42.486Z,78.21
2023-03-07T21:41:47.652Z,79.81
2023-03-07T21:43:50.990Z,79.41
2023-03-07T21:45:56.738Z,79.84
2023-03-07T21:48:00.731Z,79.98
2023-03-07T21:50:04.396Z,79.15
2023-03-07T21:52:08.046Z,79.87
2023-03-07T21:54:12.490Z,79.72
2023-03-07T21:56:18.046Z,79.59
2023-03-07T21:58:22.445Z,80.04
2023-03-07T22:00:27.103Z,79.30
2023-03-07T22:02:32.146Z,80.49
2023-03-07T22:04:36.940Z,79.78
2023-03-07T22:06:41.144Z,78.86
2023-03-07T22:08:44.998Z,79.75
2023-03-07T22:10:58.159Z,79.45
2023-03-07T22:13:01.768Z,79.78
2023-03-07T22:15:05.929Z,80.11
2023-03-07T22:17:09.588Z,80.33
2023-03-07T22:19:16.896Z,79.57
2023-03-07T22:21:21.607Z,80.08
2023-03-07T22:23:26.801Z,80.15
2023-03-07T22:25:31.357Z,80.83
2023-03-07T22:27:38.316Z,81.13
2023-03-07T22:29:41.985Z,80.90
2023-03-07T22:31:45.732Z,79.88
2023-03-07T22:33:49.465Z,80.73
2023-03-07T22:35:59.355Z,80.52
2023-03-07T22:38:02.967Z,80.67
2023-03-07T22:40:09.077Z,80.49
2023-03-07T22:42:13.025Z,80.42
2023-03-07T22:44:20.603Z,80.93
2023-03-07T22:46:24.804Z,80.72
2023-03-07T22:48:30.852Z,80.88
2023-03-07T22:50:35.545Z,80.90
2023-03-07T22:52:41.641Z,81.02
2023-03-07T22:54:46.043Z,80.96
2023-03-07T22:56:50.335Z,81.51
2023-03-07T22:58:55.737Z,81.44
2023-03-07T23:00:59.512Z,80.71
2023-03-07T23:03:03.161Z,81.17
2023-03-07T23:05:07.532Z,81.24
2023-03-07T23:07:11.765Z,80.91
2023-03-07T23:09:17.363Z,81.13
2023-03-07T23:11:26.962Z,80.67
2023-03-07T23:13:30.455Z,81.11
2023-03-07T23:15:34.575Z,81.24
2023-03-07T23:17:38.717Z,80.75
2023-03-07T23:19:44.326Z,80.91
2023-03-07T23:21:49.420Z,81.25
2023-03-07T23:23:54.463Z,80.83
2023-03-07T23:25:59.759Z,81.25
2023-03-07T23:28:03.115Z,81.15
2023-03-07T23:30:08.242Z,81.08
2023-03-07T23:32:11.834Z,81.06
2023-03-07T23:34:17.505Z,81.04
2023-03-07T23:36:20.976Z,81.87
2023-03-07T23:38:24.718Z,80.80
2023-03-07T23:40:28.538Z,81.26
2023-03-07T23:42:33.395Z,81.09
2023-03-07T23:44:37.080Z,80.82
2023-03-07T23:46:41.471Z,80.09
2023-03-07T23:48:45.073Z,80.11
2023-03-07T23:50:50.508Z,80.02
2023-03-07T23:52:54.303Z,78.64
2023-03-07T23:54:57.960Z,78.18
2023-03-07T23:57:01.538Z,77.12
2023-03-07T23:59:06.602Z,77.35
